Time;durP1;ratioP1;P1;durP2;ratioP2;P2;SDS_P1;SDS_P2;PMS_P1;PMS_P2;Temp;Humidity;BMP_temperature;BMP_pressure;BME280_temperature;BME280_humidity;BME280_pressure;Samples;Min_cycle;Max_cycle;Signal;HPM_P1;HPM_P2
2021/12/11 00:04:06;;;;;;;107.97;22.70;;;;;;;;;;10445663;28;20301;-74
2021/12/11 00:09:27;;;;;;;147.73;23.17;;;;;;;;;;10458973;28;20292;-74
2021/12/11 00:14:30;;;;;;;121.77;21.93;;;;;;;;;;10450610;28;20221;-74
2021/12/11 00:19:32;;;;;;;89.68;21.42;;;;;;;;;;10456319;28;20292;-74
2021/12/11 00:24:35;;;;;;;116.57;22.10;;;;;;;;;;10451235;28;20211;-75
2021/12/11 00:29:37;;;;;;;97.20;22.50;;;;;;;;;;10454961;28;20679;-73
2021/12/11 00:34:39;;;;;;;89.53;20.38;;;;;;;;;;10452483;28;20237;-74
2021/12/11 00:39:46;;;;;;;77.10;20.45;;;;;;;;;;10465478;28;20247;-74
2021/12/11 00:44:48;;;;;;;116.90;20.98;;;;;;;;;;10432747;28;20209;-73
2021/12/11 00:50:01;;;;;;;101.85;20.98;;;;;;;;;;10446424;28;20916;-73
2021/12/11 00:55:06;;;;;;;100.45;19.83;;;;;;;;;;10438643;28;20689;-72
2021/12/11 01:00:09;;;;;;;73.32;19.85;;;;;;;;;;10445816;28;20193;-73
2021/12/11 01:05:10;;;;;;;85.43;19.53;;;;;;;;;;10437250;28;20221;-73
2021/12/11 01:10:14;;;;;;;76.72;20.75;;;;;;;;;;10451883;28;20194;-73
2021/12/11 01:15:27;;;;;;;133.00;23.80;;;;;;;;;;10447289;28;20565;-73
2021/12/11 01:20:47;;;;;;;129.80;20.55;;;;;;;;;;10447153;28;20178;-73
2021/12/11 01:25:48;;;;;;;102.70;19.87;;;;;;;;;;10454158;28;20214;-73
2021/12/11 01:30:49;;;;;;;50.80;18.30;;;;;;;;;;10454574;28;20307;-73
2021/12/11 01:35:51;;;;;;;69.70;17.23;;;;;;;;;;10455378;28;20194;-73
2021/12/11 01:40:54;;;;;;;106.97;20.08;;;;;;;;;;10455812;28;20251;-73
2021/12/11 01:45:56;;;;;;;91.88;19.35;;;;;;;;;;10440752;28;20381;-73
2021/12/11 01:51:03;;;;;;;179.95;21.63;;;;;;;;;;10435493;28;20187;-72
2021/12/11 01:56:08;;;;;;;187.68;23.58;;;;;;;;;;10446758;28;20292;-73
2021/12/11 02:01:12;;;;;;;86.53;18.87;;;;;;;;;;10427590;28;20821;-74
2021/12/11 02:06:13;;;;;;;103.22;20.38;;;;;;;;;;10433180;28;22639;-73
2021/12/11 02:11:17;;;;;;;68.90;18.80;;;;;;;;;;10454690;28;20578;-73
2021/12/11 02:16:22;;;;;;;126.68;21.75;;;;;;;;;;10450750;28;20217;-73
2021/12/11 02:21:26;;;;;;;81.68;19.48;;;;;;;;;;10448989;28;20189;-73
2021/12/11 02:26:28;;;;;;;159.25;21.52;;;;;;;;;;10451438;28;20210;-73
2021/12/11 02:31:32;;;;;;;171.13;23.87;;;;;;;;;;10452702;28;20218;-73
2021/12/11 02:36:35;;;;;;;149.68;22.83;;;;;;;;;;10451362;28;20171;-73
2021/12/11 02:42:00;;;;;;;76.13;21.38;;;;;;;;;;10444058;28;20190;-73
2021/12/11 02:47:11;;;;;;;95.27;20.27;;;;;;;;;;10442882;28;20229;-74
2021/12/11 02:52:18;;;;;;;95.57;23.17;;;;;;;;;;10451938;28;20205;-73
2021/12/11 02:57:21;;;;;;;128.90;25.13;;;;;;;;;;10448021;28;20189;-73
2021/12/11 03:02:26;;;;;;;129.90;21.60;;;;;;;;;;10435247;28;20217;-75
2021/12/11 03:07:37;;;;;;;92.45;21.45;;;;;;;;;;10450540;28;20968;-73
2021/12/11 03:12:39;;;;;;;78.68;20.52;;;;;;;;;;10448766;28;20922;-74
2021/12/11 03:17:40;;;;;;;63.90;19.53;;;;;;;;;;10450681;28;20293;-74
2021/12/11 03:22:43;;;;;;;70.73;20.10;;;;;;;;;;10450047;28;20206;-74
2021/12/11 03:27:44;;;;;;;83.03;22.13;;;;;;;;;;10445025;28;20214;-74
2021/12/11 03:32:46;;;;;;;55.10;21.70;;;;;;;;;;10462753;28;20206;-74
2021/12/11 03:37:47;;;;;;;56.93;21.73;;;;;;;;;;10461315;28;20632;-73
2021/12/11 03:42:49;;;;;;;65.13;23.42;;;;;;;;;;10463296;28;21116;-74
2021/12/11 03:47:53;;;;;;;76.83;22.17;;;;;;;;;;10458784;28;21008;-74
2021/12/11 03:52:54;;;;;;;58.90;21.90;;;;;;;;;;10452013;28;20237;-73
2021/12/11 03:57:59;;;;;;;55.57;20.10;;;;;;;;;;10463983;28;20273;-73
2021/12/11 04:03:04;;;;;;;51.90;19.03;;;;;;;;;;10450425;28;20211;-73
2021/12/11 04:08:07;;;;;;;69.00;21.20;;;;;;;;;;10452927;28;20214;-74
2021/12/11 04:13:09;;;;;;;60.67;18.63;;;;;;;;;;10437550;28;20205;-73
2021/12/11 04:18:10;;;;;;;53.60;19.63;;;;;;;;;;10439238;28;20216;-73
2021/12/11 04:23:11;;;;;;;57.13;18.83;;;;;;;;;;10447793;28;20245;-73
2021/12/11 04:28:13;;;;;;;38.92;17.08;;;;;;;;;;10457346;28;20288;-73
2021/12/11 04:33:14;;;;;;;43.00;18.57;;;;;;;;;;10462077;28;20241;-73
2021/12/11 04:38:15;;;;;;;39.37;16.63;;;;;;;;;;10446246;28;20221;-73
2021/12/11 04:43:19;;;;;;;37.55;17.38;;;;;;;;;;10443255;28;20213;-72
2021/12/11 04:48:43;;;;;;;36.03;16.27;;;;;;;;;;10457927;28;20218;-73
2021/12/11 04:54:03;;;;;;;33.23;15.50;;;;;;;;;;10457635;28;20205;-72
2021/12/11 04:59:25;;;;;;;32.93;16.47;;;;;;;;;;10466387;28;20189;-73
2021/12/11 05:09:55;;;;;;;34.47;15.57;;;;;;;;;;10458864;28;20374;-73
2021/12/11 05:14:57;;;;;;;46.90;15.20;;;;;;;;;;10452969;28;20276;-73
2021/12/11 05:19:58;;;;;;;32.73;15.30;;;;;;;;;;10452959;28;20947;-72
2021/12/11 05:24:59;;;;;;;55.27;15.60;;;;;;;;;;10452311;28;20209;-73
2021/12/11 05:30:00;;;;;;;58.27;16.00;;;;;;;;;;10457544;28;20178;-73
2021/12/11 05:35:01;;;;;;;32.20;14.90;;;;;;;;;;10451725;28;20222;-73
2021/12/11 05:40:03;;;;;;;39.10;15.60;;;;;;;;;;10453537;28;20217;-73
2021/12/11 05:45:05;;;;;;;46.83;16.13;;;;;;;;;;10456046;28;20206;-73
2021/12/11 05:50:07;;;;;;;68.77;16.40;;;;;;;;;;10451460;28;20206;-73
2021/12/11 05:55:13;;;;;;;38.70;14.97;;;;;;;;;;10451974;28;20229;-73
2021/12/11 06:00:14;;;;;;;41.77;15.43;;;;;;;;;;10448337;28;20282;-72
2021/12/11 06:05:15;;;;;;;38.15;14.50;;;;;;;;;;10450840;28;20883;-73
2021/12/11 06:10:17;;;;;;;40.00;13.17;;;;;;;;;;10445720;28;20626;-73
2021/12/11 06:15:19;;;;;;;50.47;14.13;;;;;;;;;;10450525;28;20203;-73
2021/12/11 06:20:23;;;;;;;32.57;13.40;;;;;;;;;;10452766;28;20168;-73
2021/12/11 06:25:26;;;;;;;37.73;13.30;;;;;;;;;;10452388;28;20206;-73
2021/12/11 06:30:27;;;;;;;39.93;13.57;;;;;;;;;;10431333;28;20175;-73
2021/12/11 06:35:40;;;;;;;27.20;13.17;;;;;;;;;;10459704;28;20202;-73
2021/12/11 06:40:41;;;;;;;37.87;14.37;;;;;;;;;;10454377;28;20194;-73
2021/12/11 06:45:43;;;;;;;35.90;15.10;;;;;;;;;;10452951;28;20302;-73
2021/12/11 06:50:45;;;;;;;37.77;14.40;;;;;;;;;;10458280;28;20193;-73
2021/12/11 06:55:46;;;;;;;37.88;14.50;;;;;;;;;;10458631;28;20202;-74
2021/12/11 07:00:47;;;;;;;46.27;16.07;;;;;;;;;;10458401;28;20211;-73
2021/12/11 07:05:48;;;;;;;43.23;15.60;;;;;;;;;;10454273;28;20245;-73
2021/12/11 07:10:50;;;;;;;40.07;15.50;;;;;;;;;;10461479;28;20912;-74
2021/12/11 07:15:52;;;;;;;38.57;14.40;;;;;;;;;;10464647;28;20892;-74
2021/12/11 07:20:53;;;;;;;29.00;13.07;;;;;;;;;;10465357;28;20217;-73
2021/12/11 07:25:56;;;;;;;21.50;12.38;;;;;;;;;;10466746;28;20214;-73
2021/12/11 07:30:59;;;;;;;20.23;11.27;;;;;;;;;;10462932;28;20206;-73
2021/12/11 07:36:01;;;;;;;28.73;13.67;;;;;;;;;;10466731;28;20259;-74
2021/12/11 07:41:05;;;;;;;27.23;13.67;;;;;;;;;;10461541;28;20182;-74
2021/12/11 07:46:06;;;;;;;21.10;12.80;;;;;;;;;;10461855;28;20862;-73
2021/12/11 07:51:08;;;;;;;20.77;10.90;;;;;;;;;;10466630;28;20178;-73
2021/12/11 07:56:09;;;;;;;25.42;11.65;;;;;;;;;;10461046;28;20284;-73
2021/12/11 08:01:10;;;;;;;28.97;13.30;;;;;;;;;;10465013;28;20264;-76
2021/12/11 08:06:12;;;;;;;36.57;15.07;;;;;;;;;;10469754;28;20290;-75
2021/12/11 08:11:17;;;;;;;36.57;15.30;;;;;;;;;;10466063;28;20213;-75
2021/12/11 08:16:21;;;;;;;28.33;13.73;;;;;;;;;;10461324;28;20230;-75
2021/12/11 08:21:23;;;;;;;28.90;12.30;;;;;;;;;;10459675;28;20311;-75
2021/12/11 08:26:27;;;;;;;22.97;11.60;;;;;;;;;;10462327;28;20909;-75
2021/12/11 08:31:28;;;;;;;20.95;10.40;;;;;;;;;;10460799;28;20285;-75
2021/12/11 08:36:29;;;;;;;22.17;10.95;;;;;;;;;;10462193;28;20206;-75
2021/12/11 08:41:30;;;;;;;22.13;11.03;;;;;;;;;;10462744;28;20239;-75
2021/12/11 08:46:33;;;;;;;22.13;11.20;;;;;;;;;;10461589;28;20229;-76
2021/12/11 08:51:40;;;;;;;30.00;13.50;;;;;;;;;;10463235;28;20194;-78
2021/12/11 08:56:42;;;;;;;29.95;12.95;;;;;;;;;;10461562;28;20260;-76
2021/12/11 09:01:58;;;;;;;26.42;12.10;;;;;;;;;;10458887;28;20515;-76
2021/12/11 09:07:01;;;;;;;25.63;12.40;;;;;;;;;;10451375;28;20205;-75
2021/12/11 09:12:09;;;;;;;23.30;11.17;;;;;;;;;;10462305;28;20194;-78
2021/12/11 09:17:15;;;;;;;24.77;11.88;;;;;;;;;;10463008;28;20209;-76
2021/12/11 09:22:19;;;;;;;22.45;11.25;;;;;;;;;;10455197;28;20213;-76
2021/12/11 09:27:41;;;;;;;22.80;12.05;;;;;;;;;;10460895;28;20203;-76
2021/12/11 09:32:48;;;;;;;23.77;11.77;;;;;;;;;;10463949;28;20210;-75
2021/12/11 09:37:51;;;;;;;23.25;12.25;;;;;;;;;;10450852;28;20271;-76
2021/12/11 09:42:52;;;;;;;25.10;12.75;;;;;;;;;;10449797;28;20194;-75
2021/12/11 09:48:01;;;;;;;21.50;11.50;;;;;;;;;;10457644;28;20230;-75
2021/12/11 09:53:02;;;;;;;24.75;11.40;;;;;;;;;;10451781;28;20198;-75
2021/12/11 09:58:06;;;;;;;19.23;11.63;;;;;;;;;;10446592;28;20192;-75
2021/12/11 10:03:08;;;;;;;20.60;11.75;;;;;;;;;;10461561;28;20214;-76
2021/12/11 10:13:29;;;;;;;21.55;11.90;;;;;;;;;;10454549;28;20273;-77
2021/12/11 10:18:32;;;;;;;21.67;10.93;;;;;;;;;;10463539;28;20234;-76
2021/12/11 10:23:35;;;;;;;19.38;10.60;;;;;;;;;;10464820;28;20202;-76
2021/12/11 10:28:37;;;;;;;18.75;11.07;;;;;;;;;;10449663;28;20209;-76
2021/12/11 10:33:38;;;;;;;18.80;10.65;;;;;;;;;;10439881;28;20218;-76
2021/12/11 10:38:40;;;;;;;17.15;10.93;;;;;;;;;;10455220;28;20185;-77
2021/12/11 10:43:47;;;;;;;19.75;11.65;;;;;;;;;;10467168;28;20209;-77
2021/12/11 10:48:49;;;;;;;17.67;11.20;;;;;;;;;;10469908;28;20252;-77
2021/12/11 10:53:51;;;;;;;16.42;9.73;;;;;;;;;;10487009;28;20213;-77
2021/12/11 10:58:55;;;;;;;17.70;10.80;;;;;;;;;;10494825;28;20178;-77
2021/12/11 11:04:03;;;;;;;17.77;9.88;;;;;;;;;;10473268;28;20221;-80
2021/12/11 11:09:06;;;;;;;17.08;10.52;;;;;;;;;;10467141;28;21713;-78
2021/12/11 11:14:08;;;;;;;26.45;12.13;;;;;;;;;;10478211;28;20225;-77
2021/12/11 11:19:10;;;;;;;20.90;13.40;;;;;;;;;;10469918;28;20386;-78
2021/12/11 11:24:12;;;;;;;18.13;11.60;;;;;;;;;;10491285;28;20245;-78
2021/12/11 11:29:16;;;;;;;16.50;10.60;;;;;;;;;;10467336;28;20872;-79
2021/12/11 11:34:19;;;;;;;17.20;11.43;;;;;;;;;;10458875;28;20857;-79
2021/12/11 11:39:22;;;;;;;15.45;10.73;;;;;;;;;;10459962;28;20209;-78
2021/12/11 11:44:26;;;;;;;17.70;11.77;;;;;;;;;;10473085;28;20202;-78
2021/12/11 11:49:27;;;;;;;12.93;9.90;;;;;;;;;;10472434;28;20202;-78
2021/12/11 11:54:29;;;;;;;14.57;9.98;;;;;;;;;;10457360;28;20202;-78
2021/12/11 11:59:30;;;;;;;13.27;9.88;;;;;;;;;;10468533;28;20174;-78
2021/12/11 12:04:33;;;;;;;15.07;11.63;;;;;;;;;;10453579;28;20217;-80
2021/12/11 12:09:38;;;;;;;21.48;11.38;;;;;;;;;;10451253;28;20701;-78
2021/12/11 12:14:42;;;;;;;15.18;10.50;;;;;;;;;;10471848;28;20194;-78
2021/12/11 12:19:43;;;;;;;16.73;10.73;;;;;;;;;;10469317;28;20210;-78
2021/12/11 12:24:45;;;;;;;15.30;10.95;;;;;;;;;;10472383;28;20209;-79
2021/12/11 12:29:50;;;;;;;16.27;10.80;;;;;;;;;;10462938;28;20167;-78
2021/12/11 12:34:53;;;;;;;16.88;10.60;;;;;;;;;;10459096;28;20229;-78
2021/12/11 12:39:55;;;;;;;15.38;10.73;;;;;;;;;;10468120;28;20234;-78
2021/12/11 12:45:06;;;;;;;17.63;11.63;;;;;;;;;;10458712;28;20206;-78
2021/12/11 12:50:11;;;;;;;17.63;11.68;;;;;;;;;;10471335;28;20207;-78
2021/12/11 12:55:18;;;;;;;17.17;11.07;;;;;;;;;;10466567;28;20334;-78
2021/12/11 13:00:26;;;;;;;16.83;10.77;;;;;;;;;;10474289;28;20182;-78
2021/12/11 13:05:30;;;;;;;19.65;11.70;;;;;;;;;;10474055;28;20202;-79
2021/12/11 13:10:33;;;;;;;19.25;11.48;;;;;;;;;;10469373;28;20239;-78
2021/12/11 13:15:39;;;;;;;21.10;12.60;;;;;;;;;;10459365;28;20297;-78
2021/12/11 13:20:46;;;;;;;20.85;12.10;;;;;;;;;;10471062;28;20218;-78
2021/12/11 13:25:53;;;;;;;18.60;11.80;;;;;;;;;;10460441;28;20272;-78
2021/12/11 13:30:57;;;;;;;25.48;13.60;;;;;;;;;;10463443;28;20943;-77
2021/12/11 13:36:00;;;;;;;24.00;13.13;;;;;;;;;;10449032;28;21156;-78
2021/12/11 13:41:05;;;;;;;25.65;14.52;;;;;;;;;;10446177;28;20193;-77
2021/12/11 13:46:06;;;;;;;23.90;14.07;;;;;;;;;;10451084;28;20639;-77
2021/12/11 13:51:13;;;;;;;25.48;13.98;;;;;;;;;;10456511;28;20182;-77
2021/12/11 13:56:17;;;;;;;26.45;13.70;;;;;;;;;;10455575;28;20203;-77
2021/12/11 14:01:24;;;;;;;30.45;14.90;;;;;;;;;;10456680;28;20275;-77
2021/12/11 14:06:31;;;;;;;23.00;13.90;;;;;;;;;;10461337;28;20589;-77
2021/12/11 14:11:32;;;;;;;28.80;15.02;;;;;;;;;;10447001;28;20220;-76
2021/12/11 14:16:34;;;;;;;30.05;16.38;;;;;;;;;;10459260;28;20234;-77
2021/12/11 14:21:35;;;;;;;23.08;14.35;;;;;;;;;;10452038;28;20993;-76
2021/12/11 14:26:37;;;;;;;25.20;14.40;;;;;;;;;;10461249;28;20246;-77
2021/12/11 14:31:39;;;;;;;22.00;14.30;;;;;;;;;;10455766;28;20217;-77
2021/12/11 14:36:40;;;;;;;24.33;13.45;;;;;;;;;;10457938;28;20206;-77
2021/12/11 14:41:43;;;;;;;24.23;13.30;;;;;;;;;;10459556;28;20187;-78
2021/12/11 14:46:44;;;;;;;31.67;17.90;;;;;;;;;;10467425;28;20210;-77
2021/12/11 14:51:45;;;;;;;25.75;15.13;;;;;;;;;;10460624;28;20185;-77
2021/12/11 14:56:48;;;;;;;24.65;15.07;;;;;;;;;;10452870;28;20213;-77
2021/12/11 15:01:51;;;;;;;25.88;14.63;;;;;;;;;;10461051;28;20217;-78
2021/12/11 15:06:53;;;;;;;25.35;14.70;;;;;;;;;;10448677;28;20205;-78
2021/12/11 15:11:54;;;;;;;26.63;14.63;;;;;;;;;;10454001;28;21217;-77
2021/12/11 15:16:59;;;;;;;25.30;14.77;;;;;;;;;;10451210;28;20336;-77
2021/12/11 15:22:00;;;;;;;24.25;14.15;;;;;;;;;;10455284;28;20819;-78
2021/12/11 15:27:01;;;;;;;29.65;15.90;;;;;;;;;;10463159;28;20209;-77
2021/12/11 15:32:03;;;;;;;26.77;16.35;;;;;;;;;;10438681;28;20713;-74
2021/12/11 15:37:05;;;;;;;36.08;17.95;;;;;;;;;;10455259;28;20609;-76
2021/12/11 15:42:07;;;;;;;37.25;18.38;;;;;;;;;;10452687;28;20202;-75
2021/12/11 15:47:08;;;;;;;34.65;18.13;;;;;;;;;;10456588;28;20233;-75
2021/12/11 15:52:10;;;;;;;37.45;18.20;;;;;;;;;;10461102;28;20209;-75
2021/12/11 15:57:13;;;;;;;41.78;20.10;;;;;;;;;;10458807;28;20274;-75
2021/12/11 16:02:15;;;;;;;50.38;27.45;;;;;;;;;;10446802;28;20232;-74
2021/12/11 16:07:16;;;;;;;57.38;28.92;;;;;;;;;;10455545;28;20221;-75
2021/12/11 16:12:19;;;;;;;51.83;28.10;;;;;;;;;;10457539;28;20201;-76
2021/12/11 16:17:21;;;;;;;45.88;25.85;;;;;;;;;;10463832;28;20311;-76
2021/12/11 16:22:23;;;;;;;47.20;24.95;;;;;;;;;;10457156;28;20228;-75
2021/12/11 16:27:24;;;;;;;45.33;25.23;;;;;;;;;;10460340;28;20297;-75
2021/12/11 16:32:25;;;;;;;49.55;25.20;;;;;;;;;;10450103;28;20213;-75
2021/12/11 16:37:32;;;;;;;51.15;26.25;;;;;;;;;;10456058;28;20256;-75
2021/12/11 16:42:33;;;;;;;57.55;29.20;;;;;;;;;;10454414;28;20202;-75
2021/12/11 16:47:34;;;;;;;66.95;31.85;;;;;;;;;;10450762;28;20242;-74
2021/12/11 16:52:35;;;;;;;47.38;24.15;;;;;;;;;;10449007;28;20686;-75
2021/12/11 16:57:37;;;;;;;48.55;24.58;;;;;;;;;;10456471;28;20205;-75
2021/12/11 17:02:38;;;;;;;42.45;23.42;;;;;;;;;;10442893;28;20225;-75
2021/12/11 17:07:39;;;;;;;43.25;23.80;;;;;;;;;;10448977;28;20270;-75
2021/12/11 17:12:40;;;;;;;44.40;24.08;;;;;;;;;;10453838;28;20205;-75
2021/12/11 17:17:42;;;;;;;42.47;23.45;;;;;;;;;;10465147;28;20450;-75
2021/12/11 17:22:44;;;;;;;38.17;22.90;;;;;;;;;;10439814;28;20465;-75
2021/12/11 17:27:45;;;;;;;44.72;23.63;;;;;;;;;;10460582;28;20252;-74
2021/12/11 17:32:47;;;;;;;51.90;27.60;;;;;;;;;;10454407;28;20217;-74
2021/12/11 17:37:48;;;;;;;50.37;30.00;;;;;;;;;;10451633;28;20315;-75
2021/12/11 17:42:50;;;;;;;41.53;23.87;;;;;;;;;;10459948;28;20194;-76
2021/12/11 17:47:53;;;;;;;45.20;23.48;;;;;;;;;;10453711;28;20218;-75
2021/12/11 17:52:54;;;;;;;41.60;23.45;;;;;;;;;;10451869;28;20305;-75
2021/12/11 17:58:00;;;;;;;39.60;22.73;;;;;;;;;;10458481;28;20170;-74
2021/12/11 18:03:01;;;;;;;45.45;24.10;;;;;;;;;;10454910;28;20206;-74
2021/12/11 18:08:05;;;;;;;39.72;22.20;;;;;;;;;;10457840;28;20947;-75
2021/12/11 18:13:16;;;;;;;41.67;23.57;;;;;;;;;;10460492;28;20202;-75
2021/12/11 18:18:20;;;;;;;47.42;24.70;;;;;;;;;;10455206;28;20712;-76
2021/12/11 18:23:23;;;;;;;41.38;24.65;;;;;;;;;;10455878;28;20304;-76
2021/12/11 18:28:25;;;;;;;45.90;24.57;;;;;;;;;;10456302;28;20857;-76
2021/12/11 18:33:27;;;;;;;38.05;23.15;;;;;;;;;;10451359;28;20221;-75
2021/12/11 18:38:28;;;;;;;36.63;19.63;;;;;;;;;;10457480;28;20178;-76
2021/12/11 18:43:30;;;;;;;34.25;18.90;;;;;;;;;;10460367;28;20928;-75
2021/12/11 18:48:33;;;;;;;31.30;18.13;;;;;;;;;;10462008;28;20233;-75
2021/12/11 18:53:34;;;;;;;30.63;19.48;;;;;;;;;;10462511;28;20293;-75
2021/12/11 18:58:39;;;;;;;36.38;20.67;;;;;;;;;;10459266;28;20947;-75
2021/12/11 19:03:43;;;;;;;35.65;21.00;;;;;;;;;;10462608;28;20210;-76
2021/12/11 19:08:44;;;;;;;34.08;20.33;;;;;;;;;;10454621;28;20226;-76
2021/12/11 19:13:46;;;;;;;31.73;19.50;;;;;;;;;;10464070;28;20206;-75
2021/12/11 19:18:48;;;;;;;39.22;21.70;;;;;;;;;;10460650;28;20843;-75
2021/12/11 19:23:50;;;;;;;33.42;20.35;;;;;;;;;;10461253;28;20452;-75
2021/12/11 19:28:56;;;;;;;42.63;25.13;;;;;;;;;;10470243;28;20400;-75
2021/12/11 19:33:57;;;;;;;40.53;24.27;;;;;;;;;;10447746;28;20269;-75
2021/12/11 19:39:02;;;;;;;40.13;22.83;;;;;;;;;;10455142;28;20191;-75
2021/12/11 19:44:04;;;;;;;37.00;20.77;;;;;;;;;;10453657;28;20340;-75
2021/12/11 19:49:07;;;;;;;30.20;18.15;;;;;;;;;;10457466;28;20218;-75
2021/12/11 19:54:09;;;;;;;29.23;17.85;;;;;;;;;;10458551;28;20720;-75
2021/12/11 19:59:11;;;;;;;33.13;18.15;;;;;;;;;;10462217;28;20594;-75
2021/12/11 20:04:13;;;;;;;27.80;16.52;;;;;;;;;;10441204;28;20954;-75
2021/12/11 20:09:19;;;;;;;23.53;15.23;;;;;;;;;;10454319;28;20292;-74
2021/12/11 20:14:20;;;;;;;21.48;13.52;;;;;;;;;;10448485;28;20709;-74
2021/12/11 20:19:26;;;;;;;21.35;13.05;;;;;;;;;;10445416;28;20946;-75
2021/12/11 20:24:28;;;;;;;21.73;14.35;;;;;;;;;;10452825;28;20218;-74
2021/12/11 20:29:34;;;;;;;23.20;14.45;;;;;;;;;;10453338;28;20190;-75
2021/12/11 20:34:36;;;;;;;23.17;13.30;;;;;;;;;;10458411;28;20303;-75
2021/12/11 20:39:37;;;;;;;18.43;11.10;;;;;;;;;;10437354;28;20182;-74
2021/12/11 20:44:39;;;;;;;18.25;12.50;;;;;;;;;;10454306;28;20895;-75
2021/12/11 20:49:42;;;;;;;24.90;12.82;;;;;;;;;;10456187;28;20211;-75
2021/12/11 20:54:55;;;;;;;19.73;10.48;;;;;;;;;;10451987;28;20359;-74
2021/12/11 20:59:56;;;;;;;16.67;11.40;;;;;;;;;;10453140;28;20175;-74
2021/12/11 21:04:57;;;;;;;13.95;9.60;;;;;;;;;;10452080;28;20221;-74
2021/12/11 21:10:07;;;;;;;17.90;11.20;;;;;;;;;;10451555;28;20179;-74
2021/12/11 21:15:12;;;;;;;15.15;10.70;;;;;;;;;;10450370;28;20232;-74
2021/12/11 21:20:16;;;;;;;16.67;11.18;;;;;;;;;;10413340;28;20257;-74
2021/12/11 21:25:21;;;;;;;15.57;10.50;;;;;;;;;;10412672;28;20819;-72
2021/12/11 21:30:24;;;;;;;17.53;11.90;;;;;;;;;;10393390;28;20167;-73
2021/12/11 21:35:27;;;;;;;15.30;11.02;;;;;;;;;;10438383;28;20197;-73
2021/12/11 21:40:33;;;;;;;13.87;9.97;;;;;;;;;;10426737;28;20205;-73
2021/12/11 21:45:40;;;;;;;16.70;10.47;;;;;;;;;;10444835;28;20700;-72
2021/12/11 21:50:48;;;;;;;13.93;10.18;;;;;;;;;;10447780;28;20193;-73
2021/12/11 21:55:49;;;;;;;13.70;10.30;;;;;;;;;;10455070;28;20204;-72
2021/12/11 22:00:53;;;;;;;16.43;10.50;;;;;;;;;;10446997;28;20848;-72
2021/12/11 22:05:56;;;;;;;15.00;10.45;;;;;;;;;;10447512;28;20221;-72
2021/12/11 22:10:58;;;;;;;17.70;10.97;;;;;;;;;;10449109;28;20253;-73
2021/12/11 22:16:01;;;;;;;20.30;11.63;;;;;;;;;;10443344;28;20309;-72
2021/12/11 22:21:06;;;;;;;15.73;10.60;;;;;;;;;;10436739;28;20182;-74
2021/12/11 22:26:13;;;;;;;13.77;10.37;;;;;;;;;;10443455;28;20272;-72
2021/12/11 22:31:18;;;;;;;16.03;10.33;;;;;;;;;;10454490;28;20271;-72
2021/12/11 22:36:19;;;;;;;16.77;10.63;;;;;;;;;;10451895;28;20635;-72
2021/12/11 22:41:32;;;;;;;17.00;10.73;;;;;;;;;;10452890;28;20281;-72
2021/12/11 22:46:33;;;;;;;21.05;12.00;;;;;;;;;;10452073;28;20222;-72
2021/12/11 22:51:38;;;;;;;21.47;12.23;;;;;;;;;;10458020;28;20241;-72
2021/12/11 22:56:41;;;;;;;18.40;11.60;;;;;;;;;;10454276;28;20277;-72
2021/12/11 23:01:48;;;;;;;21.70;12.53;;;;;;;;;;10451580;28;20217;-71
2021/12/11 23:06:49;;;;;;;18.97;11.67;;;;;;;;;;10456781;28;20289;-72
2021/12/11 23:11:54;;;;;;;18.83;11.27;;;;;;;;;;10447077;28;20183;-73
2021/12/11 23:16:58;;;;;;;18.67;11.33;;;;;;;;;;10446855;28;20202;-72
2021/12/11 23:22:01;;;;;;;16.50;10.57;;;;;;;;;;10456603;28;20281;-72
2021/12/11 23:27:23;;;;;;;19.43;10.70;;;;;;;;;;10456131;28;20209;-72
2021/12/11 23:32:30;;;;;;;17.27;10.63;;;;;;;;;;10447720;28;20701;-72
2021/12/11 23:37:37;;;;;;;17.73;11.10;;;;;;;;;;10459149;28;20186;-72
2021/12/11 23:42:52;;;;;;;21.00;10.90;;;;;;;;;;10452657;28;20210;-72
2021/12/11 23:47:55;;;;;;;21.30;11.47;;;;;;;;;;10463982;28;20225;-72
2021/12/11 23:52:57;;;;;;;19.57;11.53;;;;;;;;;;10461441;28;20290;-72
2021/12/11 23:57:58;;;;;;;20.97;12.00;;;;;;;;;;10414842;23;20227;-69
